sensor_id;sensor_type;location;lat;lon;timestamp;pressure;altitude;pressure_sealevel;temperature;humidity
34031;BME280;20319;28.466;-16.274;2023-10-31T00:00:20;95088.72;;;18.88;100.00
34031;BME280;20319;28.466;-16.274;2023-10-31T00:02:46;95092.56;;;18.87;100.00
34031;BME280;20319;28.466;-16.274;2023-10-31T00:05:11;95024.13;;;18.48;100.00
34031;BME280;20319;28.466;-16.274;2023-10-31T00:07:37;94824.50;;;17.15;100.00
34031;BME280;20319;28.466;-16.274;2023-10-31T00:10:03;95008.44;;;18.11;100.00
34031;BME280;20319;28.466;-16.274;2023-10-31T00:12:28;94811.16;;;17.19;100.00
34031;BME280;20319;28.466;-16.274;2023-10-31T00:14:54;94792.66;;;17.04;100.00
34031;BME280;20319;28.466;-16.274;2023-10-31T00:17:19;94813.84;;;17.19;100.00
34031;BME280;20319;28.466;-16.274;2023-10-31T00:19:45;94613.88;;;15.98;100.00
34031;BME280;20319;28.466;-16.274;2023-10-31T00:22:10;95049.63;;;18.72;100.00
34031;BME280;20319;28.466;-16.274;2023-10-31T00:24:36;94596.19;;;15.83;100.00
34031;BME280;20319;28.466;-16.274;2023-10-31T00:27:02;95049.03;;;18.50;100.00
34031;BME280;20319;28.466;-16.274;2023-10-31T00:29:27;95118.53;;;19.14;100.00
34031;BME280;20319;28.466;-16.274;2023-10-31T00:31:53;95053.97;;;18.48;100.00
34031;BME280;20319;28.466;-16.274;2023-10-31T00:34:19;94807.78;;;17.13;100.00
34031;BME280;20319;28.466;-16.274;2023-10-31T00:36:45;95115.34;;;19.12;100.00
34031;BME280;20319;28.466;-16.274;2023-10-31T00:39:10;95037.34;;;18.66;100.00
34031;BME280;20319;28.466;-16.274;2023-10-31T00:41:37;94595.56;;;15.86;100.00
34031;BME280;20319;28.466;-16.274;2023-10-31T00:44:03;95071.50;;;18.59;100.00
34031;BME280;20319;28.466;-16.274;2023-10-31T00:46:28;94837.84;;;17.12;100.00
34031;BME280;20319;28.466;-16.274;2023-10-31T00:48:54;95071.00;;;18.91;100.00
34031;BME280;20319;28.466;-16.274;2023-10-31T00:51:20;94931.78;;;17.76;100.00
34031;BME280;20319;28.466;-16.274;2023-10-31T00:53:46;95039.28;;;18.40;100.00
34031;BME280;20319;28.466;-16.274;2023-10-31T00:56:11;94767.19;;;16.96;100.00
34031;BME280;20319;28.466;-16.274;2023-10-31T00:58:37;94972.44;;;18.27;100.00
34031;BME280;20319;28.466;-16.274;2023-10-31T01:01:02;94973.88;;;18.16;100.00
34031;BME280;20319;28.466;-16.274;2023-10-31T01:03:28;95102.91;;;19.11;100.00
34031;BME280;20319;28.466;-16.274;2023-10-31T01:05:54;94357.66;;;14.33;100.00
34031;BME280;20319;28.466;-16.274;2023-10-31T01:08:19;95101.63;;;19.08;100.00
34031;BME280;20319;28.466;-16.274;2023-10-31T01:10:45;95009.28;;;18.45;100.00
34031;BME280;20319;28.466;-16.274;2023-10-31T01:13:11;95062.38;;;18.80;100.00
34031;BME280;20319;28.466;-16.274;2023-10-31T01:15:37;95060.31;;;18.86;100.00
34031;BME280;20319;28.466;-16.274;2023-10-31T01:18:02;94925.56;;;18.01;100.00
34031;BME280;20319;28.466;-16.274;2023-10-31T01:20:28;94646.84;;;16.25;100.00
34031;BME280;20319;28.466;-16.274;2023-10-31T01:22:53;95047.25;;;18.79;100.00
34031;BME280;20319;28.466;-16.274;2023-10-31T01:25:19;94927.31;;;17.80;100.00
34031;BME280;20319;28.466;-16.274;2023-10-31T01:27:44;95011.84;;;18.50;100.00
34031;BME280;20319;28.466;-16.274;2023-10-31T01:30:11;94743.31;;;16.90;100.00
34031;BME280;20319;28.466;-16.274;2023-10-31T01:32:36;94855.72;;;17.30;100.00
34031;BME280;20319;28.466;-16.274;2023-10-31T01:35:02;94942.78;;;18.05;100.00
34031;BME280;20319;28.466;-16.274;2023-10-31T01:37:29;95053.00;;;18.78;100.00
34031;BME280;20319;28.466;-16.274;2023-10-31T01:39:55;94628.94;;;15.90;100.00
34031;BME280;20319;28.466;-16.274;2023-10-31T01:42:20;94669.25;;;16.35;100.00
34031;BME280;20319;28.466;-16.274;2023-10-31T01:44:46;94976.41;;;18.30;100.00
34031;BME280;20319;28.466;-16.274;2023-10-31T01:47:11;94877.75;;;17.45;100.00
34031;BME280;20319;28.466;-16.274;2023-10-31T01:49:38;94923.00;;;17.79;100.00
34031;BME280;20319;28.466;-16.274;2023-10-31T01:52:04;94838.03;;;17.32;100.00
34031;BME280;20319;28.466;-16.274;2023-10-31T01:54:32;94704.44;;;16.52;100.00
34031;BME280;20319;28.466;-16.274;2023-10-31T01:56:57;95088.38;;;18.90;100.00
34031;BME280;20319;28.466;-16.274;2023-10-31T01:59:27;94877.09;;;17.40;100.00
34031;BME280;20319;28.466;-16.274;2023-10-31T02:01:54;95105.31;;;18.87;100.00
34031;BME280;20319;28.466;-16.274;2023-10-31T02:04:21;95013.38;;;18.09;100.00
34031;BME280;20319;28.466;-16.274;2023-10-31T02:06:46;94789.44;;;16.85;100.00
34031;BME280;20319;28.466;-16.274;2023-10-31T02:09:12;94775.69;;;16.56;100.00
34031;BME280;20319;28.466;-16.274;2023-10-31T02:11:38;94829.47;;;16.66;100.00
34031;BME280;20319;28.466;-16.274;2023-10-31T02:14:03;94584.66;;;15.52;100.00
34031;BME280;20319;28.466;-16.274;2023-10-31T02:16:29;94943.88;;;17.79;100.00
34031;BME280;20319;28.466;-16.274;2023-10-31T02:18:54;95071.66;;;18.62;100.00
34031;BME280;20319;28.466;-16.274;2023-10-31T02:21:20;95017.88;;;18.30;100.00
34031;BME280;20319;28.466;-16.274;2023-10-31T02:24:02;95000.16;;;18.07;100.00
34031;BME280;20319;28.466;-16.274;2023-10-31T02:26:32;94965.09;;;18.02;100.00
34031;BME280;20319;28.466;-16.274;2023-10-31T02:28:58;95055.34;;;18.28;100.00
34031;BME280;20319;28.466;-16.274;2023-10-31T02:31:24;94512.75;;;15.17;100.00
34031;BME280;20319;28.466;-16.274;2023-10-31T02:33:50;94920.28;;;17.70;100.00
34031;BME280;20319;28.466;-16.274;2023-10-31T02:36:15;94772.22;;;16.72;100.00
34031;BME280;20319;28.466;-16.274;2023-10-31T02:38:41;94824.13;;;16.83;100.00
34031;BME280;20319;28.466;-16.274;2023-10-31T02:41:07;95082.66;;;18.74;100.00
34031;BME280;20319;28.466;-16.274;2023-10-31T02:43:32;95028.41;;;18.15;100.00
34031;BME280;20319;28.466;-16.274;2023-10-31T02:45:59;94860.16;;;17.26;100.00
34031;BME280;20319;28.466;-16.274;2023-10-31T02:48:25;94765.56;;;16.70;100.00
34031;BME280;20319;28.466;-16.274;2023-10-31T02:50:51;95125.91;;;18.79;100.00
34031;BME280;20319;28.466;-16.274;2023-10-31T02:53:20;94457.47;;;14.67;100.00
34031;BME280;20319;28.466;-16.274;2023-10-31T02:55:46;95065.91;;;18.55;100.00
34031;BME280;20319;28.466;-16.274;2023-10-31T02:58:12;94758.84;;;16.59;100.00
34031;BME280;20319;28.466;-16.274;2023-10-31T03:00:37;95047.19;;;18.20;100.00
34031;BME280;20319;28.466;-16.274;2023-10-31T03:03:03;95105.78;;;18.80;100.00
34031;BME280;20319;28.466;-16.274;2023-10-31T03:05:29;95059.63;;;18.12;100.00
34031;BME280;20319;28.466;-16.274;2023-10-31T03:07:55;95111.22;;;18.80;100.00
34031;BME280;20319;28.466;-16.274;2023-10-31T03:10:21;94638.16;;;15.98;100.00
34031;BME280;20319;28.466;-16.274;2023-10-31T03:12:47;95061.31;;;18.56;100.00
34031;BME280;20319;28.466;-16.274;2023-10-31T03:15:13;95133.72;;;18.81;100.00
34031;BME280;20319;28.466;-16.274;2023-10-31T03:17:39;94921.53;;;17.47;100.00
34031;BME280;20319;28.466;-16.274;2023-10-31T03:20:05;94647.22;;;16.02;100.00
34031;BME280;20319;28.466;-16.274;2023-10-31T03:22:31;94696.28;;;16.43;100.00
34031;BME280;20319;28.466;-16.274;2023-10-31T03:24:56;94969.88;;;18.14;100.00
34031;BME280;20319;28.466;-16.274;2023-10-31T03:27:22;95077.53;;;18.90;100.00
34031;BME280;20319;28.466;-16.274;2023-10-31T03:29:48;95096.22;;;18.74;100.00
34031;BME280;20319;28.466;-16.274;2023-10-31T03:32:14;94722.75;;;16.63;100.00
34031;BME280;20319;28.466;-16.274;2023-10-31T03:34:40;94455.78;;;14.71;100.00
34031;BME280;20319;28.466;-16.274;2023-10-31T03:37:06;95097.97;;;18.96;100.00
34031;BME280;20319;28.466;-16.274;2023-10-31T03:39:32;94807.31;;;17.20;100.00
34031;BME280;20319;28.466;-16.274;2023-10-31T03:41:57;95053.47;;;18.71;100.00
34031;BME280;20319;28.466;-16.274;2023-10-31T03:44:23;95036.38;;;18.71;100.00
34031;BME280;20319;28.466;-16.274;2023-10-31T03:46:49;94627.56;;;16.18;100.00
34031;BME280;20319;28.466;-16.274;2023-10-31T03:49:14;94892.13;;;17.97;100.00
34031;BME280;20319;28.466;-16.274;2023-10-31T03:51:40;95038.44;;;18.91;100.00
34031;BME280;20319;28.466;-16.274;2023-10-31T03:54:05;94767.84;;;17.27;100.00
34031;BME280;20319;28.466;-16.274;2023-10-31T03:56:38;95001.94;;;18.71;100.00
34031;BME280;20319;28.466;-16.274;2023-10-31T03:59:04;95060.44;;;19.15;100.00
34031;BME280;20319;28.466;-16.274;2023-10-31T04:01:29;95151.28;;;19.17;100.00
34031;BME280;20319;28.466;-16.274;2023-10-31T04:03:55;94873.16;;;17.97;100.00
34031;BME280;20319;28.466;-16.274;2023-10-31T04:06:20;94510.88;;;15.74;100.00
34031;BME280;20319;28.466;-16.274;2023-10-31T04:08:47;95061.19;;;19.24;100.00
34031;BME280;20319;28.466;-16.274;2023-10-31T04:11:13;94652.78;;;16.53;100.00
34031;BME280;20319;28.466;-16.274;2023-10-31T04:13:38;94700.03;;;16.73;100.00
34031;BME280;20319;28.466;-16.274;2023-10-31T04:16:04;94581.50;;;16.32;100.00
34031;BME280;20319;28.466;-16.274;2023-10-31T04:18:30;95065.69;;;19.29;100.00
34031;BME280;20319;28.466;-16.274;2023-10-31T04:20:55;94797.81;;;17.56;100.00
34031;BME280;20319;28.466;-16.274;2023-10-31T04:23:21;94835.72;;;17.91;100.00
34031;BME280;20319;28.466;-16.274;2023-10-31T04:25:47;94560.19;;;16.13;100.00
34031;BME280;20319;28.466;-16.274;2023-10-31T04:28:12;94901.66;;;18.29;100.00
34031;BME280;20319;28.466;-16.274;2023-10-31T04:30:39;95028.69;;;18.98;100.00
34031;BME280;20319;28.466;-16.274;2023-10-31T04:33:04;94711.03;;;17.10;100.00
34031;BME280;20319;28.466;-16.274;2023-10-31T04:35:30;94505.66;;;15.77;100.00
34031;BME280;20319;28.466;-16.274;2023-10-31T04:37:55;95042.69;;;19.26;100.00
34031;BME280;20319;28.466;-16.274;2023-10-31T04:40:22;95107.84;;;19.26;100.00
34031;BME280;20319;28.466;-16.274;2023-10-31T04:42:47;94784.41;;;17.43;100.00
34031;BME280;20319;28.466;-16.274;2023-10-31T04:45:13;95049.69;;;19.27;100.00
34031;BME280;20319;28.466;-16.274;2023-10-31T04:47:39;95014.03;;;18.82;100.00
34031;BME280;20319;28.466;-16.274;2023-10-31T04:50:05;94710.22;;;17.01;100.00
34031;BME280;20319;28.466;-16.274;2023-10-31T04:52:31;94740.78;;;17.02;100.00
34031;BME280;20319;28.466;-16.274;2023-10-31T04:54:56;95055.78;;;19.24;100.00
34031;BME280;20319;28.466;-16.274;2023-10-31T04:57:22;94691.91;;;16.81;100.00
34031;BME280;20319;28.466;-16.274;2023-10-31T04:59:48;95061.91;;;18.95;100.00
34031;BME280;20319;28.466;-16.274;2023-10-31T05:02:14;94695.38;;;16.56;100.00
34031;BME280;20319;28.466;-16.274;2023-10-31T05:04:40;94895.94;;;18.13;100.00
34031;BME280;20319;28.466;-16.274;2023-10-31T05:07:06;94639.56;;;16.52;100.00
34031;BME280;20319;28.466;-16.274;2023-10-31T05:09:31;95075.59;;;19.16;100.00
34031;BME280;20319;28.466;-16.274;2023-10-31T05:11:57;94874.56;;;17.95;100.00
34031;BME280;20319;28.466;-16.274;2023-10-31T05:14:22;94396.41;;;14.93;100.00
34031;BME280;20319;28.466;-16.274;2023-10-31T05:16:48;94408.28;;;14.92;100.00
34031;BME280;20319;28.466;-16.274;2023-10-31T05:19:13;94700.53;;;16.75;100.00
34031;BME280;20319;28.466;-16.274;2023-10-31T05:21:39;95034.16;;;18.81;100.00
34031;BME280;20319;28.466;-16.274;2023-10-31T05:24:05;95016.63;;;18.70;100.00
34031;BME280;20319;28.466;-16.274;2023-10-31T05:26:31;94707.41;;;16.42;100.00
34031;BME280;20319;28.466;-16.274;2023-10-31T05:28:57;95014.88;;;18.57;100.00
34031;BME280;20319;28.466;-16.274;2023-10-31T05:31:24;95002.44;;;18.48;100.00
34031;BME280;20319;28.466;-16.274;2023-10-31T05:33:50;95002.25;;;18.36;100.00
34031;BME280;20319;28.466;-16.274;2023-10-31T05:36:22;95077.41;;;18.52;100.00
34031;BME280;20319;28.466;-16.274;2023-10-31T05:38:48;95095.25;;;18.96;100.00
34031;BME280;20319;28.466;-16.274;2023-10-31T05:41:14;95100.22;;;18.94;100.00
34031;BME280;20319;28.466;-16.274;2023-10-31T05:43:40;94658.22;;;16.14;100.00
34031;BME280;20319;28.466;-16.274;2023-10-31T05:46:06;94661.09;;;16.17;100.00
34031;BME280;20319;28.466;-16.274;2023-10-31T05:48:32;95089.53;;;18.89;100.00
34031;BME280;20319;28.466;-16.274;2023-10-31T05:50:57;94457.28;;;14.86;100.00
34031;BME280;20319;28.466;-16.274;2023-10-31T05:53:23;95100.84;;;18.74;100.00
34031;BME280;20319;28.466;-16.274;2023-10-31T05:55:49;95063.22;;;18.64;100.00
34031;BME280;20319;28.466;-16.274;2023-10-31T05:58:14;94853.97;;;17.34;100.00
34031;BME280;20319;28.466;-16.274;2023-10-31T06:00:40;95063.69;;;18.40;100.00
34031;BME280;20319;28.466;-16.274;2023-10-31T06:03:05;94978.34;;;18.21;100.00
34031;BME280;20319;28.466;-16.274;2023-10-31T06:05:31;94967.97;;;18.06;100.00
34031;BME280;20319;28.466;-16.274;2023-10-31T06:07:56;94867.63;;;17.03;100.00
34031;BME280;20319;28.466;-16.274;2023-10-31T06:10:22;94737.50;;;16.49;100.00
34031;BME280;20319;28.466;-16.274;2023-10-31T06:12:48;94939.25;;;17.79;100.00
34031;BME280;20319;28.466;-16.274;2023-10-31T06:15:13;94729.00;;;16.42;100.00
34031;BME280;20319;28.466;-16.274;2023-10-31T06:17:39;94823.69;;;17.06;100.00
34031;BME280;20319;28.466;-16.274;2023-10-31T06:20:07;94821.78;;;16.98;100.00
34031;BME280;20319;28.466;-16.274;2023-10-31T06:22:33;95136.28;;;18.77;100.00
34031;BME280;20319;28.466;-16.274;2023-10-31T06:24:59;95041.63;;;18.33;100.00
34031;BME280;20319;28.466;-16.274;2023-10-31T06:27:24;94835.25;;;16.90;100.00
34031;BME280;20319;28.466;-16.274;2023-10-31T06:29:50;94595.28;;;15.49;100.00
34031;BME280;20319;28.466;-16.274;2023-10-31T06:32:16;94607.81;;;15.53;100.00
34031;BME280;20319;28.466;-16.274;2023-10-31T06:34:41;94690.75;;;16.00;100.00
34031;BME280;20319;28.466;-16.274;2023-10-31T06:37:07;94937.06;;;17.25;100.00
34031;BME280;20319;28.466;-16.274;2023-10-31T06:39:32;95168.19;;;18.72;100.00
34031;BME280;20319;28.466;-16.274;2023-10-31T06:41:58;95019.13;;;18.07;100.00
34031;BME280;20319;28.466;-16.274;2023-10-31T06:44:24;94695.06;;;16.01;100.00
34031;BME280;20319;28.466;-16.274;2023-10-31T06:46:49;95099.41;;;18.51;100.00
34031;BME280;20319;28.466;-16.274;2023-10-31T06:49:15;94632.72;;;15.50;100.00
34031;BME280;20319;28.466;-16.274;2023-10-31T06:51:41;94722.06;;;16.01;100.00
34031;BME280;20319;28.466;-16.274;2023-10-31T06:54:07;94758.94;;;16.14;100.00
34031;BME280;20319;28.466;-16.274;2023-10-31T06:56:32;94870.56;;;16.85;100.00
34031;BME280;20319;28.466;-16.274;2023-10-31T06:58:58;95185.41;;;18.59;100.00
34031;BME280;20319;28.466;-16.274;2023-10-31T07:01:24;94971.06;;;17.48;100.00
34031;BME280;20319;28.466;-16.274;2023-10-31T07:03:50;94900.06;;;16.64;100.00
34031;BME280;20319;28.466;-16.274;2023-10-31T07:06:15;94864.78;;;16.69;100.00
34031;BME280;20319;28.466;-16.274;2023-10-31T07:08:41;95037.22;;;17.73;100.00
34031;BME280;20319;28.466;-16.274;2023-10-31T07:11:07;94824.72;;;16.41;100.00
34031;BME280;20319;28.466;-16.274;2023-10-31T07:13:32;95157.16;;;18.51;100.00
34031;BME280;20319;28.466;-16.274;2023-10-31T07:15:58;95119.53;;;18.02;100.00
34031;BME280;20319;28.466;-16.274;2023-10-31T07:18:23;94869.53;;;16.64;100.00
34031;BME280;20319;28.466;-16.274;2023-10-31T07:20:49;95089.34;;;17.78;100.00
34031;BME280;20319;28.466;-16.274;2023-10-31T07:23:15;95171.81;;;18.50;100.00
34031;BME280;20319;28.466;-16.274;2023-10-31T07:25:41;95071.56;;;17.94;100.00
34031;BME280;20319;28.466;-16.274;2023-10-31T07:28:06;94894.25;;;16.79;100.00
34031;BME280;20319;28.466;-16.274;2023-10-31T07:30:32;94688.06;;;15.39;100.00
34031;BME280;20319;28.466;-16.274;2023-10-31T07:32:58;95106.91;;;17.89;100.00
34031;BME280;20319;28.466;-16.274;2023-10-31T07:35:23;94911.41;;;16.75;100.00
34031;BME280;20319;28.466;-16.274;2023-10-31T07:37:49;95099.16;;;18.05;100.00
34031;BME280;20319;28.466;-16.274;2023-10-31T07:40:15;94839.59;;;16.29;100.00
34031;BME280;20319;28.466;-16.274;2023-10-31T07:42:40;94772.88;;;15.99;100.00
34031;BME280;20319;28.466;-16.274;2023-10-31T07:45:06;95140.28;;;18.07;100.00
34031;BME280;20319;28.466;-16.274;2023-10-31T07:47:32;95139.06;;;18.30;100.00
34031;BME280;20319;28.466;-16.274;2023-10-31T07:49:58;95205.81;;;18.56;100.00
34031;BME280;20319;28.466;-16.274;2023-10-31T07:52:24;94910.88;;;16.64;100.00
34031;BME280;20319;28.466;-16.274;2023-10-31T07:54:49;94852.31;;;16.29;100.00
34031;BME280;20319;28.466;-16.274;2023-10-31T07:57:15;95202.50;;;18.59;100.00
34031;BME280;20319;28.466;-16.274;2023-10-31T07:59:41;94695.72;;;15.46;100.00
34031;BME280;20319;28.466;-16.274;2023-10-31T08:02:06;95134.63;;;18.34;100.00
34031;BME280;20319;28.466;-16.274;2023-10-31T08:04:32;94867.94;;;16.63;100.00
34031;BME280;20319;28.466;-16.274;2023-10-31T08:06:57;95203.13;;;18.82;100.00
34031;BME280;20319;28.466;-16.274;2023-10-31T08:09:23;95205.06;;;18.90;100.00
34031;BME280;20319;28.466;-16.274;2023-10-31T08:11:49;95177.63;;;18.83;100.00
34031;BME280;20319;28.466;-16.274;2023-10-31T08:14:14;95143.94;;;18.67;100.00
34031;BME280;20319;28.466;-16.274;2023-10-31T08:16:41;95191.34;;;19.12;100.00
34031;BME280;20319;28.466;-16.274;2023-10-31T08:19:07;95083.78;;;18.48;100.00
34031;BME280;20319;28.466;-16.274;2023-10-31T08:21:33;95182.72;;;19.18;100.00
34031;BME280;20319;28.466;-16.274;2023-10-31T08:24:02;94535.84;;;15.10;100.00
34031;BME280;20319;28.466;-16.274;2023-10-31T08:26:30;95160.53;;;19.08;100.00
34031;BME280;20319;28.466;-16.274;2023-10-31T08:28:55;95177.00;;;19.11;100.00
34031;BME280;20319;28.466;-16.274;2023-10-31T08:31:21;95114.75;;;18.89;100.00
34031;BME280;20319;28.466;-16.274;2023-10-31T08:33:46;95051.22;;;18.56;100.00
34031;BME280;20319;28.466;-16.274;2023-10-31T08:36:12;94958.38;;;17.74;100.00
34031;BME280;20319;28.466;-16.274;2023-10-31T08:38:38;94903.25;;;17.70;100.00
34031;BME280;20319;28.466;-16.274;2023-10-31T08:41:04;95212.06;;;19.68;100.00
34031;BME280;20319;28.466;-16.274;2023-10-31T08:43:29;95167.72;;;19.30;100.00
34031;BME280;20319;28.466;-16.274;2023-10-31T08:45:55;94958.25;;;17.88;100.00
34031;BME280;20319;28.466;-16.274;2023-10-31T08:48:21;95160.38;;;19.39;100.00
34031;BME280;20319;28.466;-16.274;2023-10-31T08:50:46;95218.47;;;19.72;100.00
34031;BME280;20319;28.466;-16.274;2023-10-31T08:53:12;94974.81;;;18.20;100.00
34031;BME280;20319;28.466;-16.274;2023-10-31T08:55:37;94860.88;;;17.57;100.00
34031;BME280;20319;28.466;-16.274;2023-10-31T08:58:03;95276.28;;;20.15;100.00
34031;BME280;20319;28.466;-16.274;2023-10-31T09:00:29;95006.88;;;18.35;100.00
34031;BME280;20319;28.466;-16.274;2023-10-31T09:02:54;95282.97;;;20.26;100.00
34031;BME280;20319;28.466;-16.274;2023-10-31T09:05:20;95116.31;;;19.25;100.00
34031;BME280;20319;28.466;-16.274;2023-10-31T09:07:45;95295.69;;;20.42;100.00
34031;BME280;20319;28.466;-16.274;2023-10-31T09:10:14;95323.22;;;20.49;100.00
34031;BME280;20319;28.466;-16.274;2023-10-31T09:12:40;95341.00;;;20.47;100.00
34031;BME280;20319;28.466;-16.274;2023-10-31T09:15:06;95263.09;;;20.34;100.00
34031;BME280;20319;28.466;-16.274;2023-10-31T09:17:31;94974.38;;;18.52;100.00
34031;BME280;20319;28.466;-16.274;2023-10-31T09:19:57;95189.34;;;19.81;100.00
34031;BME280;20319;28.466;-16.274;2023-10-31T09:22:24;95323.03;;;20.92;100.00
34031;BME280;20319;28.466;-16.274;2023-10-31T09:24:50;95315.34;;;20.94;100.00
34031;BME280;20319;28.466;-16.274;2023-10-31T09:27:15;95337.03;;;21.11;100.00
34031;BME280;20319;28.466;-16.274;2023-10-31T09:29:41;95035.16;;;19.32;100.00
34031;BME280;20319;28.466;-16.274;2023-10-31T09:32:06;95341.59;;;21.28;100.00
34031;BME280;20319;28.466;-16.274;2023-10-31T09:34:32;95351.50;;;21.32;100.00
34031;BME280;20319;28.466;-16.274;2023-10-31T09:36:58;95251.41;;;20.71;100.00
34031;BME280;20319;28.466;-16.274;2023-10-31T09:39:24;95033.53;;;19.39;100.00
34031;BME280;20319;28.466;-16.274;2023-10-31T09:41:50;95372.72;;;21.47;100.00
34031;BME280;20319;28.466;-16.274;2023-10-31T09:44:15;95317.94;;;21.20;100.00
34031;BME280;20319;28.466;-16.274;2023-10-31T09:46:41;95405.41;;;21.47;100.00
34031;BME280;20319;28.466;-16.274;2023-10-31T09:49:08;95408.41;;;21.54;100.00
34031;BME280;20319;28.466;-16.274;2023-10-31T09:51:36;95336.88;;;21.37;100.00
34031;BME280;20319;28.466;-16.274;2023-10-31T09:54:02;95409.97;;;21.64;100.00
34031;BME280;20319;28.466;-16.274;2023-10-31T09:56:29;95366.50;;;21.67;100.00
34031;BME280;20319;28.466;-16.274;2023-10-31T09:59:04;95355.97;;;21.37;100.00
34031;BME280;20319;28.466;-16.274;2023-10-31T10:01:30;95384.88;;;21.79;100.00
34031;BME280;20319;28.466;-16.274;2023-10-31T10:03:56;95283.53;;;21.15;100.00
34031;BME280;20319;28.466;-16.274;2023-10-31T10:06:21;95392.78;;;21.92;100.00
34031;BME280;20319;28.466;-16.274;2023-10-31T10:08:49;95345.03;;;21.66;100.00
34031;BME280;20319;28.466;-16.274;2023-10-31T10:11:15;95254.75;;;20.77;100.00
34031;BME280;20319;28.466;-16.274;2023-10-31T10:13:41;95307.13;;;21.52;100.00
34031;BME280;20319;28.466;-16.274;2023-10-31T10:16:07;95396.81;;;22.28;100.00
34031;BME280;20319;28.466;-16.274;2023-10-31T10:18:34;95439.28;;;22.37;100.00
34031;BME280;20319;28.466;-16.274;2023-10-31T10:21:05;95442.06;;;22.29;100.00
34031;BME280;20319;28.466;-16.274;2023-10-31T10:23:32;95329.53;;;21.99;100.00
34031;BME280;20319;28.466;-16.274;2023-10-31T10:25:59;95435.66;;;22.45;100.00
34031;BME280;20319;28.466;-16.274;2023-10-31T10:28:26;95407.06;;;22.31;100.00
34031;BME280;20319;28.466;-16.274;2023-10-31T10:30:53;95432.22;;;22.57;100.00
34031;BME280;20319;28.466;-16.274;2023-10-31T10:33:19;94832.47;;;18.77;100.00
34031;BME280;20319;28.466;-16.274;2023-10-31T10:35:45;95415.75;;;22.45;100.00
34031;BME280;20319;28.466;-16.274;2023-10-31T10:38:15;95468.81;;;22.56;100.00
34031;BME280;20319;28.466;-16.274;2023-10-31T10:40:47;95137.44;;;20.70;100.00
34031;BME280;20319;28.466;-16.274;2023-10-31T10:43:22;95369.06;;;22.26;100.00
34031;BME280;20319;28.466;-16.274;2023-10-31T10:45:53;95475.22;;;22.60;100.00
34031;BME280;20319;28.466;-16.274;2023-10-31T10:48:21;95220.47;;;21.25;100.00
34031;BME280;20319;28.466;-16.274;2023-10-31T14:15:52;95391.59;;;23.72;100.00
34031;BME280;20319;28.466;-16.274;2023-10-31T14:18:18;95404.13;;;23.97;100.00
34031;BME280;20319;28.466;-16.274;2023-10-31T14:20:44;95449.09;;;24.24;100.00
34031;BME280;20319;28.466;-16.274;2023-10-31T14:23:09;95471.25;;;24.46;100.00
34031;BME280;20319;28.466;-16.274;2023-10-31T14:25:35;95267.03;;;23.47;100.00
34031;BME280;20319;28.466;-16.274;2023-10-31T14:28:01;95406.31;;;24.59;100.00
34031;BME280;20319;28.466;-16.274;2023-10-31T14:30:29;95195.81;;;23.28;100.00
34031;BME280;20319;28.466;-16.274;2023-10-31T14:32:55;95462.72;;;24.75;100.00
34031;BME280;20319;28.466;-16.274;2023-10-31T14:35:20;95444.72;;;24.62;100.00
34031;BME280;20319;28.466;-16.274;2023-10-31T14:37:46;95185.28;;;23.02;100.00
34031;BME280;20319;28.466;-16.274;2023-10-31T14:40:12;95381.63;;;24.16;100.00
34031;BME280;20319;28.466;-16.274;2023-10-31T14:42:37;95442.81;;;24.91;100.00
34031;BME280;20319;28.466;-16.274;2023-10-31T14:45:03;95444.13;;;24.97;100.00
34031;BME280;20319;28.466;-16.274;2023-10-31T14:47:29;95428.94;;;24.99;100.00
34031;BME280;20319;28.466;-16.274;2023-10-31T14:49:54;95399.63;;;24.44;100.00
34031;BME280;20319;28.466;-16.274;2023-10-31T14:52:20;95414.06;;;24.29;100.00
34031;BME280;20319;28.466;-16.274;2023-10-31T14:54:46;95459.94;;;24.88;100.00
34031;BME280;20319;28.466;-16.274;2023-10-31T14:57:13;95431.28;;;24.85;100.00
34031;BME280;20319;28.466;-16.274;2023-10-31T14:59:40;95410.94;;;24.70;100.00
34031;BME280;20319;28.466;-16.274;2023-10-31T15:02:05;95140.38;;;22.76;100.00
34031;BME280;20319;28.466;-16.274;2023-10-31T15:04:31;95445.06;;;24.33;100.00
34031;BME280;20319;28.466;-16.274;2023-10-31T15:06:56;95153.94;;;22.36;100.00
34031;BME280;20319;28.466;-16.274;2023-10-31T15:09:22;94881.84;;;20.40;100.00
34031;BME280;20319;28.466;-16.274;2023-10-31T15:11:48;95092.94;;;21.72;100.00
34031;BME280;20319;28.466;-16.274;2023-10-31T15:14:13;95432.97;;;23.71;100.00
34031;BME280;20319;28.466;-16.274;2023-10-31T15:16:40;95411.22;;;23.50;100.00
34031;BME280;20319;28.466;-16.274;2023-10-31T15:19:06;95398.22;;;23.59;100.00
34031;BME280;20319;28.466;-16.274;2023-10-31T15:21:32;95097.72;;;21.75;100.00
34031;BME280;20319;28.466;-16.274;2023-10-31T15:23:58;95446.09;;;23.65;100.00
34031;BME280;20319;28.466;-16.274;2023-10-31T15:26:23;95421.00;;;23.51;100.00
34031;BME280;20319;28.466;-16.274;2023-10-31T15:28:54;95420.69;;;23.41;100.00
34031;BME280;20319;28.466;-16.274;2023-10-31T15:31:19;95415.28;;;23.20;100.00
34031;BME280;20319;28.466;-16.274;2023-10-31T15:33:45;95395.91;;;23.01;100.00
34031;BME280;20319;28.466;-16.274;2023-10-31T15:36:12;95433.25;;;23.09;100.00
34031;BME280;20319;28.466;-16.274;2023-10-31T15:38:39;95429.03;;;22.99;100.00
34031;BME280;20319;28.466;-16.274;2023-10-31T15:41:05;95376.34;;;22.54;100.00
34031;BME280;20319;28.466;-16.274;2023-10-31T15:43:31;95409.25;;;22.70;100.00
34031;BME280;20319;28.466;-16.274;2023-10-31T15:45:56;95129.41;;;20.94;100.00
34031;BME280;20319;28.466;-16.274;2023-10-31T15:48:22;95157.81;;;20.84;100.00